Time;durP1;ratioP1;P1;durP2;ratioP2;P2;SDS_P1;SDS_P2;PMS_P1;PMS_P2;Temp;Humidity;BMP_temperature;BMP_pressure;BME280_temperature;BME280_humidity;BME280_pressure;Samples;Min_cycle;Max_cycle;Signal;HPM_P1;HPM_P2
2021/05/28 00:01:10;;;;;;;5.67;3.40;;;;;;;9.70;90.40;100936.06;5084490;28;20224;-78
2021/05/28 00:03:36;;;;;;;7.33;3.50;;;;;;;9.72;90.47;100933.47;5083569;28;20296;-77
2021/05/28 00:06:02;;;;;;;3.90;3.23;;;;;;;9.74;90.01;100929.09;5084647;28;20256;-78
2021/05/28 00:08:28;;;;;;;3.27;2.80;;;;;;;9.71;90.28;100930.00;5087964;28;20209;-78
2021/05/28 00:10:55;;;;;;;5.67;3.63;;;;;;;9.69;89.99;100930.88;5087821;28;20834;-78
2021/05/28 00:13:21;;;;;;;7.43;2.70;;;;;;;9.70;89.92;100930.88;5087275;28;20237;-78
2021/05/28 00:15:47;;;;;;;8.23;3.40;;;;;;;9.74;89.93;100942.13;5087763;28;20246;-78
2021/05/28 00:18:12;;;;;;;6.30;3.40;;;;;;;9.67;90.10;100946.53;5087538;28;20208;-77
2021/05/28 00:20:38;;;;;;;6.40;3.37;;;;;;;9.67;90.10;100951.75;5087190;28;20304;-78
2021/05/28 00:23:04;;;;;;;8.67;3.47;;;;;;;9.68;89.92;100955.22;5087667;28;20200;-77
2021/05/28 00:25:30;;;;;;;4.03;3.60;;;;;;;9.66;90.03;100963.03;5086696;28;20311;-78
2021/05/28 00:27:57;;;;;;;4.50;3.57;;;;;;;9.66;90.02;100952.63;5087814;28;20199;-78
2021/05/28 00:30:23;;;;;;;7.13;3.30;;;;;;;9.76;89.43;100955.16;5086996;28;20680;-77
2021/05/28 00:32:49;;;;;;;5.10;3.43;;;;;;;9.64;89.98;100962.19;5086994;28;20204;-78
2021/05/28 00:35:17;;;;;;;6.77;4.07;;;;;;;9.61;90.48;100971.75;5087368;28;20214;-77
2021/05/28 00:37:43;;;;;;;7.93;3.33;;;;;;;9.58;90.95;100963.97;5086620;28;20697;-77
2021/05/28 00:40:09;;;;;;;6.00;4.10;;;;;;;9.56;90.90;100966.59;5087126;28;20260;-78
2021/05/28 00:42:35;;;;;;;5.20;3.70;;;;;;;9.59;91.05;100970.91;5085976;28;20245;-77
2021/05/28 00:45:03;;;;;;;5.13;3.60;;;;;;;9.59;91.02;100978.72;5087643;28;20243;-77
2021/05/28 00:47:29;;;;;;;6.10;3.50;;;;;;;9.57;91.13;100973.53;5087839;28;21290;-78
2021/05/28 00:49:55;;;;;;;5.03;3.30;;;;;;;9.57;90.69;100970.91;5086467;28;20266;-78
2021/05/28 00:52:21;;;;;;;5.47;4.13;;;;;;;9.60;90.74;100981.34;5087189;28;21105;-77
2021/05/28 00:54:47;;;;;;;8.67;3.97;;;;;;;9.66;90.91;100977.81;5086805;28;20206;-78
2021/05/28 00:57:13;;;;;;;5.70;3.90;;;;;;;9.68;90.27;100974.31;5086819;28;20254;-77
2021/05/28 00:59:39;;;;;;;6.00;3.33;;;;;;;9.70;89.99;100985.59;5087335;28;20244;-78
2021/05/28 01:02:06;;;;;;;6.63;3.40;;;;;;;9.77;89.61;100988.16;5086819;28;20566;-78
2021/05/28 01:04:33;;;;;;;9.17;3.83;;;;;;;9.68;90.09;101000.41;5086175;28;20231;-77
2021/05/28 01:07:00;;;;;;;3.67;3.23;;;;;;;9.70;89.79;100990.81;5087106;28;20345;-78
2021/05/28 01:09:26;;;;;;;5.23;3.30;;;;;;;9.64;90.08;100990.88;5087037;28;20232;-78
2021/05/28 01:11:51;;;;;;;8.03;3.60;;;;;;;9.60;90.06;100996.97;5086346;28;20235;-77
2021/05/28 01:14:18;;;;;;;4.90;4.47;;;;;;;9.58;90.19;101001.34;5086343;28;20328;-78
2021/05/28 01:16:44;;;;;;;4.53;3.20;;;;;;;9.59;89.91;101007.41;5086515;28;20205;-78
2021/05/28 01:19:11;;;;;;;9.73;4.07;;;;;;;9.59;90.60;101010.88;5086082;28;20712;-78
2021/05/28 01:21:37;;;;;;;6.17;3.97;;;;;;;9.54;89.93;101020.47;5086787;28;20201;-77
2021/05/28 01:24:05;;;;;;;9.87;4.50;;;;;;;9.59;90.23;101015.22;5086343;28;20217;-78
2021/05/28 01:26:30;;;;;;;6.47;4.20;;;;;;;9.49;90.55;101012.69;5085890;28;20208;-77
2021/05/28 01:28:56;;;;;;;8.07;4.67;;;;;;;9.46;90.54;101017.91;5087102;28;20223;-78
2021/05/28 01:31:22;;;;;;;8.17;5.00;;;;;;;9.51;90.38;101020.47;5086683;28;20202;-78
2021/05/28 01:33:48;;;;;;;8.20;4.83;;;;;;;9.46;90.87;101024.84;5086704;28;20692;-77
2021/05/28 01:36:14;;;;;;;10.17;4.70;;;;;;;9.46;90.60;101027.47;5086859;28;20664;-78
2021/05/28 01:38:40;;;;;;;9.40;4.90;;;;;;;9.41;90.86;101024.84;5086553;28;20208;-78
2021/05/28 01:41:07;;;;;;;8.27;5.23;;;;;;;9.36;91.43;101034.47;5086406;28;20525;-78
2021/05/28 01:43:34;;;;;;;8.10;5.20;;;;;;;9.37;91.00;101036.16;5085076;28;20663;-78
2021/05/28 01:46:00;;;;;;;10.23;5.37;;;;;;;9.32;91.15;101032.75;5086537;28;20662;-77
2021/05/28 01:48:26;;;;;;;5.37;4.80;;;;;;;9.42;91.05;101034.41;5086361;28;20208;-78
2021/05/28 01:50:52;;;;;;;16.87;5.20;;;;;;;9.41;91.28;101035.28;5085872;28;20255;-78
2021/05/28 01:53:20;;;;;;;8.23;5.50;;;;;;;9.42;90.78;101039.63;5085623;28;20296;-78
2021/05/28 01:55:46;;;;;;;9.40;5.07;;;;;;;9.41;90.82;101040.50;5086562;28;20206;-77
2021/05/28 01:58:16;;;;;;;7.73;5.17;;;;;;;9.38;90.82;101045.72;5086418;28;20200;-78
2021/05/28 02:00:42;;;;;;;10.63;6.17;;;;;;;9.36;91.05;101042.28;5086747;28;20266;-78
2021/05/28 02:03:09;;;;;;;12.33;5.37;;;;;;;9.38;91.20;101042.28;5085482;28;20674;-77
2021/05/28 02:05:36;;;;;;;9.33;5.67;;;;;;;9.35;91.29;101037.91;5085986;28;20212;-78
2021/05/28 02:08:04;;;;;;;7.27;5.40;;;;;;;9.35;91.56;101040.53;5086407;28;20343;-78
2021/05/28 02:10:30;;;;;;;11.07;6.47;;;;;;;9.39;90.93;101044.84;5085719;28;20236;-78
2021/05/28 02:12:56;;;;;;;8.50;5.60;;;;;;;9.33;91.04;101048.34;5084735;28;20204;-78
2021/05/28 02:15:23;;;;;;;13.60;6.40;;;;;;;9.33;91.60;101044.88;5085282;28;20199;-78
2021/05/28 02:17:49;;;;;;;8.57;6.00;;;;;;;9.36;91.25;101049.22;5085841;28;20203;-78
2021/05/28 02:20:15;;;;;;;9.03;7.30;;;;;;;9.29;91.10;101050.97;5085240;28;20724;-78
2021/05/28 02:22:41;;;;;;;12.17;6.53;;;;;;;9.29;90.83;101046.63;5085677;28;20211;-78
2021/05/28 02:25:09;;;;;;;10.90;7.17;;;;;;;9.28;91.14;101051.84;5084986;28;20242;-78
2021/05/28 02:27:35;;;;;;;11.33;7.13;;;;;;;9.19;91.28;101050.13;5084921;28;20234;-78
2021/05/28 02:30:01;;;;;;;11.67;7.20;;;;;;;9.21;91.07;101051.00;5084985;28;20227;-78
2021/05/28 02:32:28;;;;;;;15.93;7.80;;;;;;;9.25;91.51;101057.91;5085121;28;20234;-78
2021/05/28 02:34:54;;;;;;;8.83;7.50;;;;;;;9.21;91.10;101056.22;5085517;28;20216;-76
2021/05/28 02:37:20;;;;;;;11.20;7.60;;;;;;;9.23;90.96;101059.66;5085287;28;20225;-78
2021/05/28 02:39:46;;;;;;;9.93;8.63;;;;;;;9.26;91.07;101064.03;5085139;28;20227;-78
2021/05/28 02:42:12;;;;;;;9.37;8.20;;;;;;;9.25;91.42;101059.66;5085206;28;20211;-78
2021/05/28 02:44:38;;;;;;;9.57;8.50;;;;;;;9.18;91.27;101064.03;5085307;28;20212;-78
2021/05/28 02:47:04;;;;;;;14.73;9.17;;;;;;;9.20;91.13;101062.31;5084862;28;20655;-76
2021/05/28 02:49:31;;;;;;;11.37;8.80;;;;;;;9.18;91.47;101069.25;5084688;28;20224;-77
2021/05/28 02:51:57;;;;;;;10.83;9.00;;;;;;;9.17;90.94;101072.72;5085050;28;20204;-77
2021/05/28 02:54:25;;;;;;;12.67;9.23;;;;;;;9.18;91.02;101071.84;5084910;28;20258;-77
2021/05/28 02:56:51;;;;;;;14.60;8.80;;;;;;;9.12;91.28;101069.28;5084313;28;20216;-78
2021/05/28 02:59:17;;;;;;;10.37;8.83;;;;;;;9.10;90.55;101071.03;5084213;28;20239;-77
2021/05/28 03:01:43;;;;;;;10.67;8.90;;;;;;;9.12;90.63;101074.50;5084716;28;20227;-77
2021/05/28 03:04:09;;;;;;;10.07;9.10;;;;;;;9.09;90.68;101079.69;5084900;28;20288;-78
2021/05/28 03:06:35;;;;;;;10.73;8.70;;;;;;;9.14;91.14;101084.03;5085030;28;20208;-78
2021/05/28 03:09:02;;;;;;;11.17;8.30;;;;;;;9.12;90.98;101087.50;5084726;28;20227;-77
2021/05/28 03:11:28;;;;;;;15.23;9.27;;;;;;;9.09;90.83;101092.72;5084865;28;20204;-78
2021/05/28 03:13:53;;;;;;;10.03;8.57;;;;;;;9.07;90.85;101092.72;5083447;28;20220;-77
2021/05/28 03:16:19;;;;;;;12.20;7.90;;;;;;;9.04;90.11;101092.72;5084540;28;20226;-78
2021/05/28 03:18:48;;;;;;;8.97;7.30;;;;;;;9.00;90.45;101088.41;5084095;28;20211;-78
2021/05/28 03:21:24;;;;;;;8.90;8.00;;;;;;;9.04;90.25;101086.63;5084375;28;20223;-78
2021/05/28 03:23:53;;;;;;;9.10;7.47;;;;;;;8.98;90.00;101084.03;5084667;28;20313;-77
2021/05/28 03:26:20;;;;;;;11.37;7.77;;;;;;;8.94;89.72;101088.41;5083921;28;20204;-78
2021/05/28 03:28:46;;;;;;;15.80;7.93;;;;;;;8.95;89.27;101100.53;5085284;28;20235;-78
2021/05/28 03:31:12;;;;;;;8.97;8.07;;;;;;;8.87;89.86;101100.56;5084275;28;20256;-78
2021/05/28 03:33:38;;;;;;;11.37;8.97;;;;;;;8.80;90.24;101111.88;5083821;28;20620;-78
2021/05/28 03:36:05;;;;;;;9.57;8.53;;;;;;;8.75;90.37;101108.38;5084730;28;20262;-77
2021/05/28 03:38:31;;;;;;;9.50;8.57;;;;;;;8.72;91.13;101109.25;5083880;28;20289;-77
2021/05/28 03:40:58;;;;;;;13.37;8.00;;;;;;;8.67;90.50;101117.94;5085184;28;20224;-78
2021/05/28 03:43:24;;;;;;;9.83;8.13;;;;;;;8.69;90.94;101117.06;5088002;28;20216;-78
2021/05/28 03:45:50;;;;;;;12.53;7.87;;;;;;;8.65;90.58;101114.47;5088263;28;20247;-77
2021/05/28 03:48:16;;;;;;;10.30;7.40;;;;;;;8.67;90.17;101107.53;5088231;28;20227;-78
2021/05/28 03:50:42;;;;;;;12.37;7.33;;;;;;;8.59;89.76;101099.72;5087640;28;20590;-78
2021/05/28 03:53:08;;;;;;;8.63;6.73;;;;;;;8.48;90.24;101117.06;5088133;28;20200;-77
2021/05/28 03:55:34;;;;;;;8.00;7.07;;;;;;;8.34;90.04;101106.59;5088316;28;20639;-78
2021/05/28 03:58:01;;;;;;;12.47;7.47;;;;;;;8.32;91.14;101108.34;5088181;28;20211;-78
2021/05/28 04:00:27;;;;;;;12.43;7.93;;;;;;;8.37;90.62;101105.75;5088350;28;20247;-77
2021/05/28 04:02:53;;;;;;;11.13;7.77;;;;;;;8.32;90.98;101106.63;5087825;28;20264;-78
2021/05/28 04:05:19;;;;;;;8.07;7.27;;;;;;;8.19;90.95;101102.25;5088318;28;20674;-78
2021/05/28 04:07:45;;;;;;;7.90;7.10;;;;;;;8.14;91.11;101106.56;5087727;28;20211;-78
2021/05/28 04:10:12;;;;;;;9.53;7.47;;;;;;;8.13;90.71;101108.31;5087963;28;20251;-78
2021/05/28 04:12:38;;;;;;;10.97;7.97;;;;;;;8.19;90.54;101104.88;5087029;28;20297;-78
2021/05/28 04:15:06;;;;;;;10.77;7.80;;;;;;;8.15;91.01;101105.72;5087984;28;20208;-78
2021/05/28 04:17:32;;;;;;;13.17;7.33;;;;;;;8.21;90.80;101112.69;5088278;28;20212;-78
2021/05/28 04:19:58;;;;;;;8.47;7.30;;;;;;;8.19;90.73;101109.19;5087526;28;20216;-77
2021/05/28 04:22:24;;;;;;;11.20;7.87;;;;;;;8.31;90.39;101117.88;5088145;28;20223;-78
2021/05/28 04:24:50;;;;;;;8.27;7.30;;;;;;;8.31;90.27;101130.03;5087572;28;20698;-78
2021/05/28 04:27:16;;;;;;;15.23;7.77;;;;;;;8.28;90.40;101124.81;5087561;28;20323;-77
2021/05/28 04:29:42;;;;;;;9.17;6.40;;;;;;;8.28;90.18;101124.81;5088220;28;20246;-78
2021/05/28 04:32:08;;;;;;;9.43;7.10;;;;;;;8.29;89.80;101126.56;5086936;28;20307;-77
2021/05/28 04:34:35;;;;;;;7.40;6.63;;;;;;;8.36;90.20;101128.28;5087272;28;20677;-78
2021/05/28 04:37:01;;;;;;;10.30;7.10;;;;;;;8.37;89.59;101129.16;5087578;28;20208;-78
2021/05/28 04:39:27;;;;;;;13.97;6.23;;;;;;;8.43;89.79;101131.81;5087152;28;20380;-77
2021/05/28 04:41:53;;;;;;;10.50;6.53;;;;;;;8.42;89.69;101132.66;5087854;28;20253;-77
2021/05/28 04:44:19;;;;;;;11.57;7.03;;;;;;;8.41;88.80;101139.59;5086620;28;20231;-78
2021/05/28 04:46:45;;;;;;;8.40;6.20;;;;;;;8.40;89.32;101134.34;5087032;28;20215;-77
2021/05/28 04:49:11;;;;;;;10.67;6.17;;;;;;;8.51;88.78;101145.69;5086769;28;20263;-79
2021/05/28 04:51:37;;;;;;;8.43;6.50;;;;;;;8.47;88.57;101144.81;5086847;28;20630;-78
2021/05/28 04:54:04;;;;;;;9.00;5.23;;;;;;;8.49;88.16;101147.41;5086882;28;20773;-78
2021/05/28 04:56:30;;;;;;;9.67;6.37;;;;;;;8.54;89.00;101150.88;5086843;28;20280;-78
2021/05/28 04:58:56;;;;;;;11.80;6.63;;;;;;;8.52;88.97;101156.09;5087241;28;20549;-77
2021/05/28 05:01:23;;;;;;;9.67;6.50;;;;;;;8.51;88.47;101159.56;5086851;28;20242;-77
2021/05/28 05:03:49;;;;;;;9.27;6.60;;;;;;;8.62;88.98;101163.91;5086591;28;20206;-78
2021/05/28 05:06:16;;;;;;;7.43;5.70;;;;;;;8.75;88.99;101168.25;5086962;28;20212;-77
2021/05/28 05:08:42;;;;;;;6.67;5.93;;;;;;;8.87;88.01;101168.25;5087277;28;20213;-78
2021/05/28 05:11:08;;;;;;;9.50;5.10;;;;;;;8.91;87.51;101166.50;5086774;28;20264;-78
2021/05/28 05:13:33;;;;;;;8.30;6.07;;;;;;;8.93;87.74;101165.63;5086358;28;20285;-77
2021/05/28 05:15:59;;;;;;;6.23;5.37;;;;;;;8.96;87.55;101177.81;5087183;28;20675;-78
2021/05/28 05:18:25;;;;;;;6.67;5.10;;;;;;;8.99;87.33;101174.31;5086495;28;20572;-79
2021/05/28 05:20:52;;;;;;;9.10;5.57;;;;;;;9.08;86.83;101164.78;5082888;28;20613;-78
2021/05/28 05:23:19;;;;;;;6.87;5.27;;;;;;;9.11;86.99;101169.09;5085126;28;20635;-78
2021/05/28 05:25:45;;;;;;;9.17;5.90;;;;;;;9.03;87.37;101174.31;5085301;28;20246;-76
2021/05/28 05:28:11;;;;;;;7.97;5.70;;;;;;;9.04;86.62;101178.66;5084580;28;20205;-78
2021/05/28 05:30:36;;;;;;;10.53;6.10;;;;;;;9.15;86.99;101186.47;5085015;28;20232;-77
2021/05/28 05:33:02;;;;;;;7.10;5.80;;;;;;;9.20;87.27;101184.72;5083878;28;20619;-78
2021/05/28 05:35:28;;;;;;;8.73;6.37;;;;;;;9.26;87.59;101183.84;5083978;28;20232;-78
2021/05/28 05:37:54;;;;;;;8.70;6.00;;;;;;;9.31;87.25;101193.38;5083545;28;20243;-79
2021/05/28 05:40:21;;;;;;;8.40;6.67;;;;;;;9.48;87.00;101197.72;5084752;28;20220;-76
2021/05/28 05:42:48;;;;;;;12.20;6.43;;;;;;;9.45;86.37;101197.69;5084321;28;20202;-75
2021/05/28 05:45:15;;;;;;;10.30;6.40;;;;;;;9.36;87.14;101197.75;5084896;28;20210;-77
2021/05/28 05:47:41;;;;;;;8.57;6.90;;;;;;;9.27;87.38;101201.22;5084398;28;20299;-76
2021/05/28 05:50:08;;;;;;;10.03;9.03;;;;;;;9.45;86.50;101197.69;5083690;28;20289;-77
2021/05/28 05:52:34;;;;;;;9.07;8.27;;;;;;;9.39;85.60;101206.38;5084146;28;20204;-77
2021/05/28 05:55:00;;;;;;;10.20;9.30;;;;;;;9.49;86.60;101202.94;5083759;28;20232;-76
2021/05/28 05:57:27;;;;;;;10.90;9.87;;;;;;;9.60;85.43;101209.84;5084022;28;20693;-76
2021/05/28 05:59:53;;;;;;;14.43;10.30;;;;;;;9.62;84.99;101210.72;5082671;28;20316;-75
2021/05/28 06:02:18;;;;;;;12.40;10.50;;;;;;;9.69;85.04;101205.47;5083771;28;20210;-77
2021/05/28 06:04:44;;;;;;;11.23;10.27;;;;;;;9.80;84.91;101207.19;5083771;28;20749;-76
2021/05/28 06:07:10;;;;;;;10.63;9.73;;;;;;;9.86;84.44;101196.72;5084088;28;20222;-76
2021/05/28 06:09:36;;;;;;;13.03;10.13;;;;;;;9.82;84.69;101208.03;5084290;28;20232;-75
2021/05/28 06:12:02;;;;;;;16.30;10.40;;;;;;;9.59;85.47;101214.16;5083694;28;20210;-75
2021/05/28 06:14:29;;;;;;;11.70;10.80;;;;;;;9.37;85.74;101220.31;5083982;28;20753;-75
2021/05/28 06:16:55;;;;;;;11.87;10.73;;;;;;;9.53;85.66;101216.78;5084594;28;20214;-75
2021/05/28 06:19:22;;;;;;;12.37;11.03;;;;;;;9.57;85.51;101215.91;5083138;28;20245;-75
2021/05/28 06:21:49;;;;;;;11.10;10.10;;;;;;;9.67;85.33;101219.38;5084169;28;20350;-76
2021/05/28 06:24:15;;;;;;;11.07;10.23;;;;;;;9.81;84.63;101216.72;5083594;28;20216;-75
2021/05/28 06:26:40;;;;;;;11.77;10.57;;;;;;;9.90;84.66;101222.78;5083584;28;20261;-75
2021/05/28 06:29:07;;;;;;;11.17;10.27;;;;;;;10.03;84.27;101222.72;5084208;28;20626;-76
2021/05/28 06:31:34;;;;;;;11.40;10.40;;;;;;;10.14;84.48;101219.19;5083506;28;20600;-77
2021/05/28 06:34:00;;;;;;;11.77;10.73;;;;;;;9.94;83.97;101232.31;5083157;28;20207;-76
2021/05/28 06:36:26;;;;;;;11.93;10.83;;;;;;;9.71;84.04;101234.13;5083928;28;20208;-76
2021/05/28 06:38:52;;;;;;;11.97;10.97;;;;;;;9.69;84.55;101233.25;5082592;28;20262;-76
2021/05/28 06:41:18;;;;;;;12.23;10.73;;;;;;;9.88;84.18;101234.09;5083298;28;20203;-76
2021/05/28 06:43:44;;;;;;;11.50;10.30;;;;;;;9.94;83.38;101236.69;5082519;28;20243;-77
2021/05/28 06:46:10;;;;;;;13.30;10.20;;;;;;;9.92;83.36;101235.81;5083758;28;20227;-75
2021/05/28 06:48:37;;;;;;;11.10;10.00;;;;;;;10.12;83.49;101236.59;5082959;28;20216;-75
2021/05/28 06:51:03;;;;;;;13.00;10.97;;;;;;;10.26;83.22;101235.66;5081440;28;20939;-76
2021/05/28 06:53:30;;;;;;;11.60;10.17;;;;;;;10.22;82.79;101240.03;5083422;28;20242;-76
2021/05/28 06:55:56;;;;;;;11.80;10.47;;;;;;;10.30;82.74;101235.66;5082891;28;20201;-76
2021/05/28 06:58:22;;;;;;;11.67;10.70;;;;;;;10.41;83.28;101232.16;5083029;28;20210;-76
2021/05/28 07:00:48;;;;;;;10.70;9.80;;;;;;;10.47;82.22;101235.59;5082947;28;20708;-76
2021/05/28 07:03:14;;;;;;;10.40;9.60;;;;;;;10.50;81.81;101227.75;5082768;28;20204;-76
2021/05/28 07:05:41;;;;;;;11.17;10.03;;;;;;;10.55;81.49;101237.31;5083607;28;20201;-76
2021/05/28 07:08:07;;;;;;;10.57;9.10;;;;;;;10.51;80.91;101236.44;5082915;28;20287;-77
2021/05/28 07:10:33;;;;;;;9.70;8.90;;;;;;;10.49;81.26;101239.06;5082737;28;20232;-75
2021/05/28 07:12:59;;;;;;;12.13;8.77;;;;;;;10.55;80.44;101239.91;5081843;28;20206;-75
2021/05/28 07:15:25;;;;;;;9.90;8.90;;;;;;;10.57;80.25;101246.84;5082727;28;20298;-74
2021/05/28 07:17:51;;;;;;;15.97;12.33;;;;;;;10.67;82.36;101243.31;5082817;28;20297;-75
2021/05/28 07:20:17;;;;;;;10.30;9.47;;;;;;;10.86;82.29;101244.06;5082544;28;20249;-76
2021/05/28 07:22:44;;;;;;;8.83;8.03;;;;;;;10.93;79.69;101231.81;5082782;28;20225;-77
2021/05/28 07:25:11;;;;;;;8.53;7.73;;;;;;;10.94;79.03;101233.53;5083318;28;20224;-78
2021/05/28 07:27:37;;;;;;;9.33;8.53;;;;;;;11.10;79.91;101236.91;5081021;28;20247;-76
2021/05/28 07:30:05;;;;;;;8.63;7.83;;;;;;;11.17;78.39;101232.50;5082859;28;20592;-78
2021/05/28 07:32:30;;;;;;;8.93;8.17;;;;;;;11.22;78.44;101234.19;5082661;28;20212;-77
2021/05/28 07:34:56;;;;;;;11.20;7.80;;;;;;;11.14;78.06;101238.63;5082450;28;20200;-77
2021/05/28 07:37:22;;;;;;;8.73;7.83;;;;;;;11.18;78.59;101239.44;5082763;28;20204;-77
2021/05/28 07:39:49;;;;;;;10.80;8.13;;;;;;;11.23;78.26;101237.66;5082832;28;20220;-75
2021/05/28 07:42:16;;;;;;;9.10;8.27;;;;;;;11.21;78.60;101235.06;5081128;28;20235;-76
2021/05/28 07:44:43;;;;;;;9.00;7.67;;;;;;;11.47;81.12;101240.03;5082129;28;20204;-77
2021/05/28 07:47:09;;;;;;;7.77;6.97;;;;;;;11.26;77.73;101229.81;5082342;28;20220;-77
2021/05/28 07:49:34;;;;;;;9.03;8.07;;;;;;;11.24;79.41;101237.66;5081627;28;20236;-76
2021/05/28 07:52:00;;;;;;;10.23;8.23;;;;;;;11.38;78.71;101231.41;5082876;28;20259;-77
2021/05/28 07:54:26;;;;;;;9.07;8.37;;;;;;;11.56;79.61;101222.56;5082200;28;20207;-76
2021/05/28 07:56:53;;;;;;;9.10;8.27;;;;;;;11.75;80.55;101225.81;5082436;28;20300;-76
2021/05/28 07:59:19;;;;;;;9.67;8.27;;;;;;;11.85;79.32;101224.81;5082621;28;20260;-77
2021/05/28 08:01:45;;;;;;;9.10;7.00;;;;;;;11.66;78.08;101229.41;5082156;28;20253;-75
2021/05/28 08:04:11;;;;;;;10.10;7.20;;;;;;;11.93;79.14;101217.78;5082308;28;20652;-77
2021/05/28 08:06:37;;;;;;;7.17;6.57;;;;;;;12.04;77.04;101225.50;5082088;28;20212;-79
2021/05/28 08:09:04;;;;;;;7.57;6.87;;;;;;;12.20;77.28;101218.34;5082303;28;20205;-76
2021/05/28 08:11:30;;;;;;;7.10;6.47;;;;;;;12.22;75.29;101222.66;5083046;28;20224;-78
2021/05/28 08:13:57;;;;;;;6.80;5.50;;;;;;;12.32;75.56;101218.16;5081841;28;20217;-77
2021/05/28 08:16:23;;;;;;;7.00;6.30;;;;;;;12.42;76.32;101226.75;5083030;28;20459;-77
2021/05/28 08:18:49;;;;;;;7.27;6.73;;;;;;;12.59;76.58;101224.78;5082261;28;20210;-77
2021/05/28 08:21:15;;;;;;;5.03;4.40;;;;;;;12.70;71.30;101229.84;5081557;28;20867;-76
2021/05/28 08:23:41;;;;;;;4.90;4.40;;;;;;;12.61;70.48;101225.63;5082045;28;20606;-76
2021/05/28 08:26:07;;;;;;;6.37;5.33;;;;;;;12.57;71.29;101229.16;5082340;28;20333;-76
2021/05/28 08:28:35;;;;;;;7.07;5.83;;;;;;;12.54;72.57;101223.97;5085360;28;20580;-77
2021/05/28 08:31:03;;;;;;;6.20;5.60;;;;;;;12.76;73.61;101231.50;5085138;28;20706;-76
2021/05/28 08:33:28;;;;;;;6.53;5.93;;;;;;;12.90;75.05;101233.03;5085437;28;20208;-77
2021/05/28 08:35:54;;;;;;;7.10;6.50;;;;;;;12.97;72.92;101243.44;5086412;28;20212;-77
2021/05/28 08:38:20;;;;;;;7.93;7.10;;;;;;;12.85;72.83;101234.84;5087038;28;21221;-77
2021/05/28 08:40:46;;;;;;;6.23;5.73;;;;;;;12.98;74.39;101246.00;5086591;28;20226;-76
2021/05/28 08:43:13;;;;;;;7.33;6.73;;;;;;;12.99;73.38;101241.66;5084885;28;20213;-77
2021/05/28 08:45:41;;;;;;;7.70;7.00;;;;;;;13.06;74.86;101233.66;5087082;28;20208;-77
2021/05/28 08:48:09;;;;;;;6.03;5.53;;;;;;;13.15;73.12;101232.63;5084872;28;20201;-78
2021/05/28 08:50:37;;;;;;;6.03;5.63;;;;;;;13.10;72.03;101232.72;5086055;28;20264;-78
2021/05/28 08:53:04;;;;;;;6.47;5.83;;;;;;;13.19;72.13;101228.19;5085669;28;20552;-77
2021/05/28 08:55:31;;;;;;;5.10;4.70;;;;;;;13.23;71.98;101227.25;5084938;28;20202;-76
2021/05/28 08:57:58;;;;;;;5.60;5.10;;;;;;;13.15;68.71;101231.78;5086271;28;20253;-78
2021/05/28 09:00:26;;;;;;;5.50;5.10;;;;;;;13.12;69.46;101237.91;5087310;28;20218;-79
2021/05/28 09:02:52;;;;;;;5.87;5.37;;;;;;;13.16;70.24;101241.34;5086610;28;20309;-78
2021/05/28 09:05:23;;;;;;;6.20;5.70;;;;;;;13.21;71.03;101227.28;5086679;28;20201;-78
2021/05/28 09:07:55;;;;;;;6.17;5.67;;;;;;;13.15;69.03;101235.25;5085787;28;20205;-77
2021/05/28 09:10:32;;;;;;;6.03;5.43;;;;;;;13.27;68.60;101229.78;5086300;28;20241;-77
2021/05/28 09:13:14;;;;;;;5.60;4.43;;;;;;;13.25;67.12;101235.97;5084505;28;20209;-77
2021/05/28 09:15:41;;;;;;;3.47;3.17;;;;;;;13.17;63.78;101230.84;5086856;28;20286;-77
2021/05/28 09:18:07;;;;;;;4.23;3.77;;;;;;;13.24;63.29;101228.97;5085222;28;20216;-76
2021/05/28 09:20:34;;;;;;;4.20;3.80;;;;;;;13.22;64.58;101238.63;5085256;28;20294;-77
2021/05/28 09:23:15;;;;;;;4.47;3.67;;;;;;;13.28;63.63;101236.78;5085745;28;20810;-78
2021/05/28 09:26:01;;;;;;;2.77;2.50;;;;;;;13.37;60.73;101232.28;5085185;28;20198;-77
2021/05/28 09:28:26;;;;;;;2.60;2.40;;;;;;;13.46;60.05;101229.50;5084996;28;20220;-77
2021/05/28 09:30:57;;;;;;;6.43;2.73;;;;;;;13.83;60.88;101229.66;5085201;28;20680;-77
2021/05/28 09:33:24;;;;;;;4.13;3.83;;;;;;;13.82;64.13;101235.81;5084402;28;20675;-78
2021/05/28 09:35:52;;;;;;;5.83;3.73;;;;;;;13.90;64.18;101244.41;5084904;28;20217;-78
2021/05/28 09:38:23;;;;;;;4.20;3.90;;;;;;;13.90;62.88;101247.03;5087005;28;20233;-78
2021/05/28 09:40:50;;;;;;;5.30;3.73;;;;;;;14.09;65.08;101250.16;5085624;28;20228;-77
2021/05/28 09:43:22;;;;;;;5.10;4.60;;;;;;;13.91;62.06;101245.25;5083547;28;20237;-77
2021/05/28 09:45:48;;;;;;;5.57;5.13;;;;;;;14.01;64.12;101253.81;5084625;28;20632;-78
2021/05/28 09:48:30;;;;;;;4.40;4.03;;;;;;;13.95;63.31;101248.69;5085228;28;20202;-77
2021/05/28 09:50:58;;;;;;;5.40;4.90;;;;;;;14.12;64.07;101251.00;5085347;28;20237;-77
2021/05/28 09:53:31;;;;;;;5.00;4.60;;;;;;;13.99;63.55;101255.59;5084920;28;20581;-77
2021/05/28 09:55:58;;;;;;;6.73;6.13;;;;;;;13.82;66.01;101258.56;5084533;28;20232;-77
2021/05/28 09:58:24;;;;;;;6.53;6.03;;;;;;;13.89;66.14;101247.03;5084028;28;20240;-77
2021/05/28 10:00:50;;;;;;;7.90;7.13;;;;;;;13.84;66.71;101255.03;5084269;28;20266;-78
2021/05/28 10:03:19;;;;;;;8.03;7.33;;;;;;;13.71;67.48;101253.50;5084051;28;20210;-77
2021/05/28 10:05:47;;;;;;;7.10;6.50;;;;;;;13.79;66.56;101248.13;5084820;28;20210;-77
2021/05/28 10:08:15;;;;;;;7.87;7.17;;;;;;;13.95;67.04;101254.78;5083944;28;20213;-78
2021/05/28 10:10:42;;;;;;;8.23;7.53;;;;;;;14.00;66.87;101252.97;5084457;28;20598;-78
2021/05/28 10:13:10;;;;;;;8.53;7.83;;;;;;;14.00;65.60;101252.97;5083230;28;20259;-77
2021/05/28 10:15:39;;;;;;;9.17;8.43;;;;;;;14.09;66.54;101255.41;5084553;28;20275;-77
2021/05/28 10:18:05;;;;;;;9.07;8.37;;;;;;;14.17;66.56;101257.88;5084618;28;20206;-77
2021/05/28 10:20:31;;;;;;;9.53;8.73;;;;;;;14.11;65.39;101255.34;5085591;28;20225;-79
2021/05/28 10:22:57;;;;;;;9.97;8.97;;;;;;;14.19;65.91;101253.47;5086752;28;20205;-78
2021/05/28 10:25:24;;;;;;;8.93;8.30;;;;;;;14.33;66.02;101261.06;5085951;28;20257;-78
2021/05/28 10:27:55;;;;;;;8.50;7.23;;;;;;;14.39;64.15;101257.41;5084590;28;20328;-78
2021/05/28 10:30:24;;;;;;;7.83;7.23;;;;;;;14.48;64.76;101259.84;5084388;28;20235;-77
2021/05/28 10:33:17;;;;;;;10.93;9.83;;;;;;;14.62;67.57;101259.56;5084797;28;20681;-78
2021/05/28 10:35:46;;;;;;;9.53;8.73;;;;;;;14.65;65.80;101259.50;5084786;28;20203;-75
2021/05/28 10:38:43;;;;;;;10.70;9.80;;;;;;;14.72;65.36;101260.22;5083412;28;20224;-77
2021/05/28 10:41:35;;;;;;;10.53;9.73;;;;;;;14.63;65.35;101261.31;5081157;28;20775;-77
2021/05/28 10:44:04;;;;;;;9.90;9.20;;;;;;;14.55;63.77;101250.03;5082295;28;20770;-77
2021/05/28 10:46:30;;;;;;;10.00;9.30;;;;;;;14.41;63.77;101253.88;5085031;28;20193;-79
2021/05/28 10:49:08;;;;;;;10.20;9.50;;;;;;;14.54;65.18;101261.47;5084857;28;20310;-77
2021/05/28 10:52:01;;;;;;;9.67;8.97;;;;;;;14.80;64.87;101266.16;5083453;28;20222;-78
2021/05/28 10:54:29;;;;;;;10.60;9.90;;;;;;;14.80;63.58;101255.66;5084230;28;20225;-79
2021/05/28 10:56:56;;;;;;;10.27;9.57;;;;;;;14.65;62.91;101249.84;5084450;28;20214;-78
2021/05/28 10:59:23;;;;;;;10.13;9.33;;;;;;;14.38;64.02;101247.81;5085005;28;20252;-78
2021/05/28 11:01:52;;;;;;;10.17;9.17;;;;;;;14.58;62.18;101258.75;5084328;28;20587;-79
2021/05/28 11:04:23;;;;;;;10.33;9.63;;;;;;;14.45;63.57;101252.91;5084665;28;20262;-79
2021/05/28 11:07:16;;;;;;;10.63;9.93;;;;;;;14.74;64.79;101251.38;5085673;28;20255;-79
2021/05/28 11:09:43;;;;;;;9.53;8.93;;;;;;;14.96;63.85;101251.75;5082624;28;20664;-78
2021/05/28 11:12:11;;;;;;;10.83;9.97;;;;;;;15.01;60.66;101243.78;5085675;28;20236;-78
2021/05/28 11:14:40;;;;;;;10.90;10.00;;;;;;;15.10;61.67;101243.53;5082579;28;20237;-77
2021/05/28 11:17:18;;;;;;;12.97;12.03;;;;;;;15.10;62.85;101246.16;5083299;28;20209;-77
2021/05/28 11:19:52;;;;;;;12.33;11.53;;;;;;;15.19;61.16;101250.34;5082442;28;20606;-77
2021/05/28 11:22:37;;;;;;;9.93;9.33;;;;;;;14.96;61.73;101243.84;5083022;28;20663;-76
2021/05/28 11:25:07;;;;;;;11.90;11.10;;;;;;;14.37;62.72;101244.31;5081969;28;20209;-77
2021/05/28 11:27:45;;;;;;;11.87;11.00;;;;;;;14.32;64.94;101248.81;5081432;28;20209;-77